Time;durP1;ratioP1;P1;durP2;ratioP2;P2;SDS_P1;SDS_P2;PMS_P1;PMS_P2;Temp;Humidity;BMP_temperature;BMP_pressure;BME280_temperature;BME280_humidity;BME280_pressure;Samples;Min_cycle;Max_cycle;Signal;HPM_P1;HPM_P2
2021/10/17 00:01:43;;;;;;;19.33;13.80;;;;;;;;;;5009820;28;20453;-90
2021/10/17 00:04:11;;;;;;;19.37;14.03;;;4.80;99.90;;;;;;5008740;28;20457;-91
2021/10/17 00:06:38;;;;;;;22.93;15.60;;;;;;;;;;5006805;28;20464;-87
2021/10/17 00:09:05;;;;;;;23.77;14.13;;;;;;;;;;5014811;28;20445;-88
2021/10/17 00:11:32;;;;;;;21.00;15.13;;;;;;;;;;5009884;28;20768;-88
2021/10/17 00:13:59;;;;;;;22.20;14.10;;;;;;;;;;5004186;28;20468;-93
2021/10/17 00:16:27;;;;;;;24.63;15.17;;;;;;;;;;5001170;28;20488;-91
2021/10/17 00:18:54;;;;;;;24.03;14.30;;;;;;;;;;5004867;28;20829;-90
2021/10/17 00:21:22;;;;;;;20.57;13.73;;;5.00;99.90;;;;;;5008009;28;20437;-85
2021/10/17 00:23:49;;;;;;;23.50;15.00;;;;;;;;;;5009679;28;20460;-90
2021/10/17 00:26:16;;;;;;;21.43;14.00;;;;;;;;;;5006457;28;20452;-90
2021/10/17 00:28:43;;;;;;;20.90;14.40;;;;;;;;;;5005485;28;20445;-91
2021/10/17 00:31:10;;;;;;;21.87;14.43;;;;;;;;;;5005325;28;20464;-88
2021/10/17 00:33:37;;;;;;;23.50;14.00;;;;;;;;;;5005732;28;20477;-91
2021/10/17 00:36:06;;;;;;;21.13;14.90;;;;;;;;;;5005101;28;20495;-86
2021/10/17 00:38:34;;;;;;;21.70;15.03;;;5.20;99.90;;;;;;5006833;28;20806;-85
2021/10/17 00:41:02;;;;;;;23.50;15.40;;;;;;;;;;5010404;28;20537;-86
2021/10/17 00:43:29;;;;;;;19.73;14.03;;;;;;;;;;5009338;28;20454;-86
2021/10/17 00:45:56;;;;;;;21.03;13.90;;;;;;;;;;5007307;28;20468;-88
2021/10/17 00:48:23;;;;;;;19.43;14.10;;;;;;;;;;5007140;28;20452;-89
2021/10/17 00:50:50;;;;;;;21.70;14.43;;;;;;;;;;5005862;28;20441;-86
2021/10/17 00:53:20;;;;;;;17.40;13.10;;;5.60;99.90;;;;;;5004995;28;20941;-85
2021/10/17 00:55:49;;;;;;;21.53;14.10;;;;;;;;;;5003340;28;20488;-89
2021/10/17 00:58:17;;;;;;;22.83;16.73;;;5.60;99.90;;;;;;5006339;28;20442;-90
2021/10/17 01:00:44;;;;;;;22.17;16.13;;;;;;;;;;5006622;28;20483;-91
2021/10/17 01:03:11;;;;;;;21.67;15.17;;;;;;;;;;5006724;28;20453;-90
2021/10/17 01:05:38;;;;;;;21.50;14.67;;;;;;;;;;5006932;28;20845;-86
2021/10/17 01:08:05;;;;;;;21.40;14.03;;;5.80;99.90;;;;;;5006962;28;20450;-88
2021/10/17 01:10:33;;;;;;;19.70;14.50;;;;;;;;;;5006505;28;20453;-90
2021/10/17 01:13:01;;;;;;;23.73;14.43;;;;;;;;;;5003671;28;20480;-89
2021/10/17 01:15:29;;;;;;;21.27;15.13;;;;;;;;;;5005623;28;20450;-86
2021/10/17 01:17:56;;;;;;;19.50;13.87;;;;;;;;;;5005821;28;20449;-88
2021/10/17 01:20:25;;;;;;;23.27;15.07;;;;;;;;;;5006270;28;20472;-91
2021/10/17 01:22:52;;;;;;;19.10;14.53;;;;;;;;;;5006641;28;20442;-87
2021/10/17 01:25:19;;;;;;;22.33;15.17;;;;;;;;;;5006964;28;20449;-90
2021/10/17 01:27:47;;;;;;;20.40;15.40;;;;;;;;;;5006333;28;20461;-91
2021/10/17 01:30:17;;;;;;;21.00;14.57;;;5.70;99.90;;;;;;5000901;28;20858;-85
2021/10/17 01:32:44;;;;;;;19.10;15.03;;;;;;;;;;4997369;28;20453;-87
2021/10/17 01:35:12;;;;;;;22.13;14.57;;;;;;;;;;5009455;28;20497;-85
2021/10/17 01:37:40;;;;;;;21.63;15.63;;;5.60;99.90;;;;;;5008424;28;20500;-91
2021/10/17 01:40:08;;;;;;;23.93;15.70;;;;;;;;;;5004872;28;20463;-90
2021/10/17 01:42:35;;;;;;;20.20;15.40;;;;;;;;;;5004745;28;20513;-90
2021/10/17 01:45:02;;;;;;;23.27;14.70;;;;;;;;;;5001963;28;20535;-87
2021/10/17 01:47:32;;;;;;;20.47;15.17;;;;;;;;;;5005252;28;20467;-90
2021/10/17 01:49:59;;;;;;;20.40;15.13;;;;;;;;;;5006509;28;20464;-88
2021/10/17 01:52:26;;;;;;;20.23;15.23;;;;;;;;;;5004857;28;20458;-88
2021/10/17 01:54:55;;;;;;;23.00;16.23;;;;;;;;;;5005113;28;20449;-91
2021/10/17 01:57:22;;;;;;;22.73;13.80;;;;;;;;;;5005101;28;20489;-87
2021/10/17 01:59:49;;;;;;;24.77;15.47;;;;;;;;;;5003464;28;20464;-89
2021/10/17 02:02:16;;;;;;;23.90;16.40;;;;;;;;;;5005551;28;20461;-91
2021/10/17 02:04:43;;;;;;;26.20;17.40;;;;;;;;;;5007550;28;20460;-93
2021/10/17 02:07:10;;;;;;;21.20;15.53;;;;;;;;;;5006614;28;20464;-93
2021/10/17 02:09:37;;;;;;;19.70;14.50;;;;;;;;;;5008233;28;20460;-90
2021/10/17 02:12:07;;;;;;;21.93;15.10;;;5.80;99.90;;;;;;5005345;28;20462;-90
2021/10/17 02:14:34;;;;;;;23.20;15.20;;;;;;;;;;5009143;28;20452;-93
2021/10/17 02:17:02;;;;;;;23.90;15.90;;;;;;;;;;5004635;28;20485;-90
2021/10/17 02:19:29;;;;;;;25.03;16.60;;;;;;;;;;5007176;28;20945;-91
2021/10/17 02:21:56;;;;;;;25.37;17.17;;;;;;;;;;5006816;28;20453;-92
2021/10/17 02:24:23;;;;;;;25.37;16.13;;;;;;;;;;5005726;28;20450;-93
2021/10/17 02:26:50;;;;;;;25.07;17.20;;;;;;;;;;5006861;28;20438;-95
2021/10/17 02:29:19;;;;;;;23.17;16.60;;;;;;;;;;5007989;28;20868;-93
2021/10/17 02:31:46;;;;;;;22.17;15.27;;;;;;;;;;5008718;28;20464;-90
2021/10/17 02:34:13;;;;;;;23.53;16.17;;;;;;;;;;5011890;28;20481;-87
2021/10/17 02:36:40;;;;;;;22.77;16.67;;;;;;;;;;5011270;28;20528;-89
2021/10/17 02:39:07;;;;;;;24.33;16.30;;;;;;;;;;5008523;28;20453;-90
2021/10/17 02:41:34;;;;;;;24.57;17.10;;;;;;;;;;5007842;28;20461;-91
2021/10/17 02:44:02;;;;;;;23.60;15.50;;;;;;;;;;5011199;28;20460;-92
2021/10/17 02:46:30;;;;;;;22.97;15.00;;;6.10;99.90;;;;;;5012726;28;20559;-91
2021/10/17 02:48:57;;;;;;;23.40;16.53;;;;;;;;;;4952308;29;20464;-90
2021/10/17 02:51:25;;;;;;;23.47;16.27;;;;;;;;;;4952058;29;20445;-89
2021/10/17 02:53:52;;;;;;;26.07;17.10;;;;;;;;;;4952527;29;20449;-90
2021/10/17 02:56:19;;;;;;;20.73;16.10;;;;;;;;;;4952704;29;20495;-89
2021/10/17 02:58:46;;;;;;;22.80;16.20;;;;;;;;;;4953115;29;20480;-88
2021/10/17 03:01:13;;;;;;;20.83;14.87;;;;;;;;;;4952622;29;20452;-84
2021/10/17 03:03:41;;;;;;;23.50;16.47;;;6.10;99.90;;;;;;4955966;29;20960;-86
2021/10/17 03:06:08;;;;;;;20.90;16.30;;;;;;;;;;4959975;28;20448;-87
2021/10/17 03:08:36;;;;;;;22.67;16.80;;;;;;;;;;5007991;28;20460;-91
2021/10/17 03:11:03;;;;;;;24.77;15.93;;;;;;;;;;5011482;28;20446;-89
2021/10/17 03:13:30;;;;;;;22.10;15.53;;;;;;;;;;5006725;28;20473;-91
2021/10/17 03:15:58;;;;;;;23.30;15.80;;;;;;;;;;5012016;28;20450;-90
2021/10/17 03:18:26;;;;;;;26.33;16.70;;;;;;;;;;5011324;28;20437;-92
2021/10/17 03:20:54;;;;;;;27.60;18.73;;;;;;;;;;5011587;28;20457;-89
2021/10/17 03:23:21;;;;;;;24.53;16.47;;;;;;;;;;5008140;28;20454;-94
2021/10/17 03:25:48;;;;;;;22.70;16.37;;;;;;;;;;5011182;28;20445;-89
2021/10/17 03:28:15;;;;;;;24.50;16.23;;;;;;;;;;5006234;28;20459;-91
2021/10/17 03:30:43;;;;;;;30.23;18.63;;;;;;;;;;5009536;28;20441;-88
2021/10/17 03:33:10;;;;;;;25.07;17.60;;;;;;;;;;5007883;28;20512;-94
2021/10/17 03:35:37;;;;;;;26.63;16.30;;;;;;;;;;5010280;28;20843;-91
2021/10/17 03:38:05;;;;;;;23.37;16.33;;;6.10;99.90;;;;;;5002792;28;20489;-90
2021/10/17 03:40:32;;;;;;;25.03;17.43;;;;;;;;;;5005975;28;20454;-92
2021/10/17 03:42:59;;;;;;;25.10;17.30;;;;;;;;;;5014017;28;20443;-86
2021/10/17 03:45:29;;;;;;;23.53;17.00;;;;;;;;;;5013313;28;20453;-92
2021/10/17 03:47:56;;;;;;;23.67;16.37;;;;;;;;;;5011388;28;20461;-94
2021/10/17 03:50:23;;;;;;;27.83;17.63;;;;;;;;;;5009746;28;20816;-91
2021/10/17 03:52:50;;;;;;;26.00;17.47;;;;;;;;;;5008024;28;20445;-94
2021/10/17 03:55:19;;;;;;;22.00;15.73;;;5.90;99.90;;;;;;5008693;28;20442;-91
2021/10/17 03:57:46;;;;;;;22.20;15.70;;;;;;;;;;5005416;28;20492;-87
2021/10/17 04:00:13;;;;;;;26.53;16.30;;;;;;;;;;5009391;28;20456;-93
2021/10/17 04:02:41;;;;;;;22.57;15.73;;;;;;;;;;5010372;28;20445;-93
2021/10/17 04:05:09;;;;;;;22.97;16.00;;;5.90;99.90;;;;;;5011037;28;20445;-93
2021/10/17 04:07:36;;;;;;;23.30;15.90;;;5.80;99.90;;;;;;5011482;28;20459;-92
2021/10/17 04:10:04;;;;;;;23.30;16.00;;;;;;;;;;5006130;28;21120;-94
2021/10/17 04:12:32;;;;;;;19.80;14.70;;;5.70;99.90;;;;;;5007976;28;20476;-90
2021/10/17 04:14:59;;;;;;;22.20;15.30;;;;;;;;;;5012480;28;20449;-93
2021/10/17 04:17:26;;;;;;;23.37;16.17;;;;;;;;;;5016251;28;20493;-91
2021/10/17 04:19:54;;;;;;;23.07;16.03;;;;;;;;;;5015931;28;20453;-89
2021/10/17 04:22:21;;;;;;;24.03;16.87;;;;;;;;;;5012038;28;20441;-89
2021/10/17 04:24:48;;;;;;;23.80;15.97;;;;;;;;;;5013923;28;20429;-93
2021/10/17 04:27:16;;;;;;;21.50;15.40;;;;;;;;;;5014275;28;20441;-90
2021/10/17 04:29:44;;;;;;;25.30;16.83;;;5.60;99.90;;;;;;5015686;28;20456;-87
2021/10/17 04:32:11;;;;;;;22.23;15.90;;;;;;;;;;5016399;28;20445;-92
2021/10/17 04:34:38;;;;;;;21.63;16.03;;;;;;;;;;5010136;28;20545;-92
2021/10/17 04:37:07;;;;;;;23.63;15.77;;;5.60;99.90;;;;;;5011794;28;20480;-87
2021/10/17 04:39:35;;;;;;;23.67;16.37;;;5.60;99.90;;;;;;5011705;28;20488;-86
2021/10/17 04:42:02;;;;;;;23.87;16.20;;;;;;;;;;5013554;28;20445;-90
2021/10/17 04:44:29;;;;;;;20.43;15.10;;;;;;;;;;5014646;28;20497;-87
2021/10/17 04:46:57;;;;;;;18.80;13.97;;;5.50;99.90;;;;;;5018824;28;20431;-86
2021/10/17 04:49:26;;;;;;;21.63;15.30;;;;;;;;;;5015128;28;20740;-91
2021/10/17 04:51:53;;;;;;;21.93;15.50;;;;;;;;;;5014442;28;20449;-88
2021/10/17 04:54:20;;;;;;;21.37;15.13;;;;;;;;;;5013514;28;20963;-94
2021/10/17 04:56:47;;;;;;;19.80;14.67;;;;;;;;;;5010639;28;20771;-89
2021/10/17 04:59:16;;;;;;;20.77;14.90;;;;;;;;;;5013691;28;20442;-96
2021/10/17 05:01:44;;;;;;;23.47;16.17;;;;;;;;;;5012593;28;20572;-91
2021/10/17 05:04:12;;;;;;;23.33;15.10;;;5.40;99.90;;;;;;5014136;28;20461;-91
2021/10/17 05:06:39;;;;;;;22.07;14.60;;;;;;;;;;5015487;28;20453;-93
2021/10/17 05:09:06;;;;;;;24.47;15.20;;;;;;;;;;5013636;28;20453;-90
2021/10/17 05:11:33;;;;;;;23.43;14.90;;;;;;;;;;5012050;28;20894;-92
2021/10/17 05:14:00;;;;;;;20.17;15.70;;;;;;;;;;5013913;28;20525;-94
2021/10/17 05:16:27;;;;;;;20.20;14.30;;;;;;;;;;5013572;28;20454;-93
2021/10/17 05:18:54;;;;;;;20.30;14.20;;;;;;;;;;5014112;28;20499;-95
2021/10/17 05:21:24;;;;;;;22.73;15.33;;;5.10;99.90;;;;;;5008276;28;20446;-95
2021/10/17 05:23:51;;;;;;;19.93;14.07;;;;;;;;;;5014050;28;20451;-90
2021/10/17 05:26:19;;;;;;;23.63;13.80;;;;;;;;;;5009824;28;20433;-92
2021/10/17 05:28:46;;;;;;;20.77;14.07;;;;;;;;;;5012931;28;20564;-90
2021/10/17 05:31:13;;;;;;;20.97;14.00;;;;;;;;;;5013368;28;20481;-91
2021/10/17 05:33:40;;;;;;;21.90;14.03;;;;;;;;;;5013655;28;20477;-93
2021/10/17 05:36:08;;;;;;;24.10;14.13;;;4.80;99.90;;;;;;5012094;28;20451;-93
2021/10/17 05:38:36;;;;;;;19.30;14.70;;;4.80;99.90;;;;;;5011384;28;20499;-91
2021/10/17 05:41:03;;;;;;;21.33;14.70;;;;;;;;;;5010978;28;20449;-92
2021/10/17 05:43:31;;;;;;;18.73;13.20;;;4.40;99.90;;;;;;5012207;28;20457;-88
2021/10/17 05:45:58;;;;;;;20.53;13.63;;;;;;;;;;5011944;28;20461;-91
2021/10/17 05:48:25;;;;;;;16.97;12.47;;;;;;;;;;5011970;28;20436;-89
2021/10/17 05:50:52;;;;;;;18.73;13.30;;;;;;;;;;5012004;28;20450;-92
2021/10/17 05:53:19;;;;;;;18.27;12.83;;;;;;;;;;5008850;28;20441;-91
2021/10/17 05:55:47;;;;;;;18.03;12.90;;;4.50;99.90;;;;;;5016485;28;20457;-88
2021/10/17 05:58:15;;;;;;;17.57;12.50;;;;;;;;;;5016044;28;21277;-92
2021/10/17 06:00:42;;;;;;;18.63;13.67;;;;;;;;;;5008084;28;20468;-93
2021/10/17 06:03:09;;;;;;;18.97;12.73;;;;;;;;;;5010220;28;20445;-90
2021/10/17 06:05:36;;;;;;;18.10;12.07;;;;;;;;;;5010645;28;20445;-95
2021/10/17 06:08:03;;;;;;;18.53;12.37;;;;;;;;;;5010334;28;20450;-92
2021/10/17 06:10:30;;;;;;;19.97;12.97;;;;;;;;;;5010332;28;20476;-94
2021/10/17 06:12:59;;;;;;;17.63;13.43;;;;;;;;;;5010700;28;20441;-91
2021/10/17 06:15:26;;;;;;;20.20;13.70;;;;;;;;;;5009899;28;20446;-92
2021/10/17 06:17:53;;;;;;;17.83;12.80;;;;;;;;;;5005202;28;20489;-94
2021/10/17 06:20:20;;;;;;;19.50;14.27;;;;;;;;;;5008357;28;20441;-93
2021/10/17 06:22:47;;;;;;;17.20;12.63;;;;;;;;;;5006822;28;20457;-89
2021/10/17 06:25:14;;;;;;;20.67;14.13;;;;;;;;;;5006589;28;20454;-94
2021/10/17 06:27:42;;;;;;;20.27;13.60;;;;;;;;;;5006045;28;20460;-93
2021/10/17 06:30:11;;;;;;;21.20;14.03;;;5.30;99.90;;;;;;5003225;28;20541;-92
2021/10/17 06:32:38;;;;;;;23.10;14.20;;;;;;;;;;5005288;28;20445;-90
2021/10/17 06:35:05;;;;;;;21.07;15.43;;;5.50;99.90;;;;;;5003881;28;20477;-95
2021/10/17 06:37:33;;;;;;;20.40;14.33;;;;;;;;;;4996998;28;20481;-93
2021/10/17 06:40:00;;;;;;;19.80;14.87;;;;;;;;;;5007342;28;20444;-95
2021/10/17 06:42:27;;;;;;;20.10;13.90;;;;;;;;;;5004208;28;20449;-93
2021/10/17 06:44:54;;;;;;;18.43;13.73;;;;;;;;;;5004342;28;20449;-90
2021/10/17 06:47:22;;;;;;;16.93;13.27;;;5.80;99.90;;;;;;5007540;28;20499;-91
2021/10/17 06:49:49;;;;;;;21.20;13.90;;;;;;;;;;5004549;28;20453;-92
2021/10/17 06:52:16;;;;;;;18.30;13.70;;;;;;;;;;5002163;28;20448;-87
2021/10/17 06:54:43;;;;;;;20.67;14.80;;;;;;;;;;5002362;28;20465;-93
2021/10/17 06:57:11;;;;;;;19.30;13.73;;;;;;;;;;5012193;28;20449;-89
2021/10/17 06:59:38;;;;;;;21.50;14.83;;;;;;;;;;5008713;28;20449;-95
2021/10/17 07:02:05;;;;;;;21.13;16.37;;;;;;;;;;5004041;28;20445;-92
2021/10/17 07:04:33;;;;;;;20.07;14.30;;;7.20;99.90;;;;;;5002781;28;20450;-94
2021/10/17 07:07:00;;;;;;;18.43;14.20;;;;;;;;;;5001323;28;20446;-90
2021/10/17 07:09:27;;;;;;;20.13;15.70;;;;;;;;;;5001362;28;20464;-90
2021/10/17 07:11:54;;;;;;;20.97;15.80;;;;;;;;;;5001505;28;20477;-92
2021/10/17 07:14:21;;;;;;;22.97;15.20;;;;;;;;;;5002269;28;20449;-89
2021/10/17 07:16:49;;;;;;;18.43;14.80;;;;;;;;;;5004592;28;20460;-91
2021/10/17 07:19:16;;;;;;;17.17;14.00;;;;;;;;;;5004110;28;20493;-87
2021/10/17 07:21:44;;;;;;;19.93;14.23;;;9.60;99.90;;;;;;5005356;28;20460;-86
2021/10/17 07:24:11;;;;;;;16.60;14.40;;;;;;;;;;5005415;28;20453;-89
2021/10/17 07:26:38;;;;;;;15.83;14.23;;;;;;;;;;5003378;28;20458;-92
2021/10/17 07:29:05;;;;;;;16.67;14.90;;;;;;;;;;5000011;28;20511;-91
2021/10/17 07:31:32;;;;;;;15.63;14.03;;;;;;;;;;5003588;28;20450;-94
2021/10/17 07:33:59;;;;;;;15.03;13.37;;;;;;;;;;5001839;28;20484;-92
2021/10/17 07:36:26;;;;;;;15.50;13.90;;;;;;;;;;5003512;28;20464;-91
2021/10/17 07:38:54;;;;;;;19.10;15.87;;;11.20;99.90;;;;;;5000907;28;20493;-90
2021/10/17 07:41:21;;;;;;;16.80;15.00;;;;;;;;;;5003330;28;20948;-88
2021/10/17 07:43:49;;;;;;;16.23;14.53;;;;;;;;;;4995702;28;20457;-89
2021/10/17 07:46:16;;;;;;;16.87;14.60;;;;;;;;;;5002623;28;20445;-92
2021/10/17 07:48:43;;;;;;;16.87;15.17;;;;;;;;;;4996059;28;20476;-90
2021/10/17 07:51:10;;;;;;;16.60;14.37;;;;;;;;;;5007620;28;20457;-91
2021/10/17 07:53:38;;;;;;;14.13;12.63;;;;;;;;;;5004794;28;20452;-91
2021/10/17 07:56:06;;;;;;;15.73;14.13;;;12.70;99.90;;;;;;5005328;28;20449;-90
2021/10/17 07:58:33;;;;;;;17.57;15.60;;;;;;;;;;5005248;28;20489;-91
2021/10/17 08:01:00;;;;;;;17.33;15.50;;;;;;;;;;5006124;28;20449;-91
2021/10/17 08:03:27;;;;;;;17.23;15.43;;;;;;;;;;5004218;28;20468;-88
2021/10/17 08:05:54;;;;;;;18.33;14.93;;;;;;;;;;5007063;28;20461;-88
2021/10/17 08:08:21;;;;;;;17.80;15.30;;;;;;;;;;5007660;28;20937;-88
2021/10/17 08:10:49;;;;;;;19.33;17.20;;;;;;;;;;5008514;28;20469;-89
2021/10/17 08:13:17;;;;;;;17.97;15.60;;;13.40;99.90;;;;;;5012979;28;20456;-90
2021/10/17 08:15:44;;;;;;;16.23;14.60;;;;;;;;;;5013155;28;20441;-87
2021/10/17 08:18:11;;;;;;;15.93;14.33;;;;;;;;;;5021106;28;20479;-90
2021/10/17 08:20:38;;;;;;;14.73;13.23;;;;;;;;;;5017439;28;20453;-89
2021/10/17 08:23:05;;;;;;;16.33;14.70;;;;;;;;;;5011266;28;20453;-88
2021/10/17 08:25:33;;;;;;;15.27;13.43;;;;;;;;;;5010494;28;20453;-89
2021/10/17 08:28:00;;;;;;;15.10;13.50;;;;;;;;;;5009744;28;20460;-88
2021/10/17 08:30:28;;;;;;;14.20;12.80;;;14.80;99.90;;;;;;5005423;28;20445;-87
2021/10/17 08:32:56;;;;;;;13.93;12.53;;;;;;;;;;5009667;28;20452;-87
2021/10/17 08:35:23;;;;;;;15.23;13.73;;;;;;;;;;5005355;28;20488;-87
2021/10/17 08:37:50;;;;;;;16.90;12.70;;;;;;;;;;5008087;28;20445;-88
2021/10/17 08:40:17;;;;;;;14.63;13.23;;;;;;;;;;5012958;28;20481;-88
2021/10/17 08:42:44;;;;;;;14.73;13.23;;;;;;;;;;5008380;28;20433;-87
2021/10/17 08:45:11;;;;;;;14.33;12.93;;;;;;;;;;5006204;28;20449;-87
2021/10/17 08:47:39;;;;;;;14.10;12.70;;;14.90;99.90;;;;;;5007004;28;20448;-89
2021/10/17 08:50:08;;;;;;;13.90;12.60;;;15.30;99.90;;;;;;5008181;28;20456;-87
2021/10/17 08:52:35;;;;;;;13.97;12.57;;;;;;;;;;5003263;28;20510;-88
2021/10/17 08:55:02;;;;;;;15.73;14.00;;;;;;;;;;5008938;28;20460;-89
2021/10/17 08:57:30;;;;;;;14.80;13.30;;;;;;;;;;5008332;28;20462;-92
2021/10/17 08:59:57;;;;;;;14.60;13.20;;;;;;;;;;5011957;28;20470;-87
2021/10/17 09:02:25;;;;;;;15.30;13.80;;;15.70;99.90;;;;;;5006263;28;20447;-90
2021/10/17 09:05:01;;;;;;;14.90;13.40;;;15.70;99.90;;;;;;5009978;28;20457;-94
2021/10/17 09:07:28;;;;;;;14.03;12.60;;;;;;;;;;5011928;28;20445;-87
2021/10/17 09:10:11;;;;;;;15.20;13.73;;;15.80;99.90;;;;;;5013700;28;20469;-88
2021/10/17 09:12:39;;;;;;;17.37;14.20;;;16.00;99.90;;;;;;5008858;28;20437;-88
2021/10/17 09:15:21;;;;;;;15.50;13.90;;;16.60;99.90;;;;;;5008744;28;20453;-90
2021/10/17 09:18:08;;;;;;;15.93;14.30;;;16.60;99.90;;;;;;5009290;28;20452;-89
2021/10/17 09:20:50;;;;;;;15.13;13.73;;;17.00;99.90;;;;;;5005654;28;20468;-88
2021/10/17 09:23:31;;;;;;;13.93;12.53;;;16.90;99.90;;;;;;5003788;28;20941;-89
2021/10/17 09:26:00;;;;;;;16.00;14.47;;;17.00;99.90;;;;;;5005878;28;20446;-93
2021/10/17 09:28:28;;;;;;;14.90;13.40;;;17.20;99.90;;;;;;5003170;28;20449;-89
2021/10/17 09:30:58;;;;;;;15.03;13.43;;;17.30;99.90;;;;;;5001954;28;20461;-89
2021/10/17 09:33:25;;;;;;;15.77;14.17;;;;;;;;;;5003497;28;20839;-90
2021/10/17 09:35:54;;;;;;;16.10;14.40;;;17.50;99.90;;;;;;5006065;28;20449;-90
2021/10/17 09:38:24;;;;;;;15.53;14.10;;;;;;;;;;5004027;28;20492;-90
2021/10/17 09:40:51;;;;;;;15.67;14.30;;;;;;;;;;5006615;28;20457;-91
2021/10/17 09:43:22;;;;;;;14.73;13.10;;;17.30;99.90;;;;;;5007303;28;20453;-94
2021/10/17 09:45:50;;;;;;;16.70;14.33;;;;;;;;;;5005352;28;20534;-93
2021/10/17 09:48:29;;;;;;;13.87;12.57;;;17.00;99.90;;;;;;5008087;28;20764;-91
2021/10/17 09:51:03;;;;;;;15.60;14.10;;;17.40;99.90;;;;;;5009419;28;20445;-88
2021/10/17 09:53:42;;;;;;;14.10;12.73;;;17.40;99.90;;;;;;5008429;28;20449;-89
2021/10/17 09:56:10;;;;;;;14.87;13.47;;;17.60;99.90;;;;;;5029830;23;20495;-93
2021/10/17 09:58:37;;;;;;;15.03;13.43;;;;;;;;;;5025495;28;20464;-96
2021/10/17 10:01:06;;;;;;;14.97;13.47;;;;;;;;;;5023649;28;20539;-92
2021/10/17 10:03:33;;;;;;;14.27;12.90;;;;;;;;;;5028863;28;20451;-92
2021/10/17 10:06:02;;;;;;;14.40;13.07;;;17.30;99.90;;;;;;5028416;28;20453;-90
2021/10/17 10:08:30;;;;;;;14.53;13.13;;;17.80;99.90;;;;;;5024855;28;20452;-96
2021/10/17 10:10:58;;;;;;;15.60;13.57;;;;;;;;;;5004681;28;20520;-91
2021/10/17 10:13:26;;;;;;;13.90;12.60;;;17.70;99.90;;;;;;5005468;28;20528;-90
2021/10/17 10:15:53;;;;;;;15.50;14.10;;;17.10;99.90;;;;;;5006504;28;20433;-90
2021/10/17 10:18:23;;;;;;;16.00;14.37;;;15.90;99.90;;;;;;5013365;28;20528;-87
2021/10/17 10:20:51;;;;;;;14.70;13.20;;;;;;;;;;5007047;28;20458;-90
2021/10/17 10:23:20;;;;;;;14.80;13.37;;;16.90;99.90;;;;;;5009035;28;20452;-88
2021/10/17 10:25:50;;;;;;;14.10;12.60;;;17.50;99.90;;;;;;5004925;28;20535;-90
2021/10/17 10:28:19;;;;;;;16.20;13.37;;;;;;;;;;5005534;28;20445;-88
2021/10/17 10:30:46;;;;;;;14.20;12.70;;;;;;;;;;5007369;28;20472;-90
2021/10/17 10:33:16;;;;;;;13.40;12.17;;;18.00;99.90;;;;;;5008023;28;20458;-88
2021/10/17 10:36:10;;;;;;;14.47;13.00;;;17.50;99.90;;;;;;5006584;28;20463;-89
2021/10/17 10:39:11;;;;;;;14.17;12.80;;;17.60;99.90;;;;;;5009669;28;20452;-89
2021/10/17 10:41:54;;;;;;;15.50;14.10;;;17.30;99.90;;;;;;4970697;29;20442;-89
2021/10/17 10:44:24;;;;;;;18.30;14.10;;;17.40;99.90;;;;;;5005993;28;20480;-94
2021/10/17 10:46:54;;;;;;;14.83;13.43;;;18.20;99.90;;;;;;5004828;28;20456;-90
2021/10/17 10:49:44;;;;;;;15.17;13.70;;;18.00;99.90;;;;;;5009929;28;20445;-87
2021/10/17 10:52:39;;;;;;;16.23;13.93;;;17.60;99.90;;;;;;5006226;28;20804;-87
2021/10/17 10:55:11;;;;;;;16.63;13.07;;;17.70;99.90;;;;;;5003023;28;20480;-87
2021/10/17 10:57:39;;;;;;;14.60;13.10;;;;;;;;;;5000547;28;20452;-88
2021/10/17 11:00:08;;;;;;;15.47;13.90;;;18.00;99.90;;;;;;5003992;28;20867;-90
2021/10/17 11:02:36;;;;;;;14.77;13.37;;;;;;;;;;5008513;28;20509;-87
2021/10/17 11:05:07;;;;;;;15.47;13.97;;;;;;;;;;5001905;28;20548;-89
2021/10/17 11:07:42;;;;;;;15.33;13.53;;;17.40;99.90;;;;;;4996766;28;20465;-88
2021/10/17 11:10:47;;;;;;;15.53;14.03;;;17.70;99.90;;;;;;5003261;28;20475;-90
2021/10/17 11:13:46;;;;;;;15.03;13.63;;;16.80;99.90;;;;;;5005651;28;20444;-90
2021/10/17 11:16:21;;;;;;;14.90;13.40;;;17.90;99.90;;;;;;5001145;28;20485;-93
2021/10/17 11:18:57;;;;;;;14.60;13.20;;;18.20;99.90;;;;;;5005737;28;20456;-95
2021/10/17 11:21:30;;;;;;;15.03;13.50;;;18.40;99.90;;;;;;5009329;28;20477;-88
2021/10/17 11:23:57;;;;;;;14.67;13.13;;;;;;;;;;5003640;28;20452;-95
2021/10/17 11:26:25;;;;;;;16.00;14.50;;;;;;;;;;5019160;23;20510;-90
2021/10/17 11:28:53;;;;;;;15.63;14.23;;;;;;;;;;5029784;28;20431;-88
2021/10/17 11:31:23;;;;;;;15.90;14.30;;;17.50;99.90;;;;;;5027110;28;20475;-95
2021/10/17 11:33:51;;;;;;;17.53;15.73;;;;;;;;;;5025031;28;20447;-92
2021/10/17 11:36:19;;;;;;;14.67;13.17;;;17.50;99.90;;;;;;5026308;28;20448;-89
2021/10/17 11:38:47;;;;;;;14.63;13.10;;;17.50;99.90;;;;;;5019588;28;20445;-94
2021/10/17 11:41:16;;;;;;;15.60;13.80;;;17.90;99.90;;;;;;5020207;28;20945;-91
2021/10/17 11:43:45;;;;;;;14.67;13.20;;;18.30;99.90;;;;;;5024082;28;20456;-89
2021/10/17 11:46:14;;;;;;;14.07;12.50;;;18.00;99.90;;;;;;5033058;28;20446;-88
2021/10/17 11:48:42;;;;;;;13.70;12.30;;;17.90;99.90;;;;;;5028362;28;20444;-92
2021/10/17 11:51:10;;;;;;;14.80;13.20;;;17.90;99.90;;;;;;5020277;28;20448;-91
2021/10/17 11:53:38;;;;;;;15.47;13.87;;;;;;;;;;5028269;28;20956;-89
2021/10/17 11:56:09;;;;;;;16.37;14.67;;;17.10;99.90;;;;;;5029224;28;20448;-92
2021/10/17 11:58:36;;;;;;;13.53;12.17;;;;;;;;;;5027312;28;20454;-96
2021/10/17 12:01:12;;;;;;;14.83;13.33;;;17.10;99.90;;;;;;5025778;28;20491;-92
2021/10/17 12:03:40;;;;;;;14.50;12.90;;;17.30;99.90;;;;;;5026793;28;20450;-92
2021/10/17 12:06:15;;;;;;;14.03;12.50;;;17.80;99.90;;;;;;5022938;28;20444;-92
2021/10/17 12:08:42;;;;;;;13.87;12.37;;;;;;;;;;5021610;28;20517;-92
2021/10/17 12:11:10;;;;;;;14.90;13.37;;;16.30;99.90;;;;;;5020526;28;20445;-92
2021/10/17 12:13:42;;;;;;;14.73;13.20;;;16.30;99.90;;;;;;5024014;28;20449;-87
2021/10/17 12:16:12;;;;;;;17.23;12.77;;;16.00;99.90;;;;;;5022814;28;20441;-89
2021/10/17 12:18:43;;;;;;;16.07;14.30;;;16.10;99.90;;;;;;5025508;28;20459;-88
2021/10/17 12:21:11;;;;;;;16.43;13.53;;;;;;;;;;5024167;28;20507;-92
2021/10/17 12:23:39;;;;;;;15.30;13.67;;;16.20;99.90;;;;;;5026189;28;20463;-90
2021/10/17 12:26:06;;;;;;;14.43;12.97;;;;;;;;;;5025627;28;20534;-89
2021/10/17 12:28:34;;;;;;;15.90;13.83;;;;;;;;;;5024464;28;20453;-87
2021/10/17 12:31:01;;;;;;;17.93;14.27;;;;;;;;;;5022954;28;20520;-95
2021/10/17 12:33:32;;;;;;;18.10;13.30;;;16.00;99.90;;;;;;5024626;28;20449;-91
2021/10/17 12:36:01;;;;;;;14.80;13.27;;;15.90;99.90;;;;;;5021985;28;20487;-94
2021/10/17 12:38:35;;;;;;;16.40;13.97;;;15.30;99.90;;;;;;5026338;28;20456;-92
2021/10/17 12:41:04;;;;;;;14.90;12.60;;;15.50;99.90;;;;;;5028857;28;20490;-93
2021/10/17 12:43:34;;;;;;;16.10;13.30;;;15.90;99.90;;;;;;5023519;28;20444;-91
2021/10/17 12:46:16;;;;;;;14.77;13.20;;;15.70;99.90;;;;;;5028006;28;20456;-95
2021/10/17 12:48:46;;;;;;;14.80;13.07;;;16.00;99.90;;;;;;5022403;28;20448;-91
2021/10/17 12:51:27;;;;;;;13.87;12.00;;;16.00;99.90;;;;;;5029075;28;20460;-90
2021/10/17 12:54:09;;;;;;;16.27;12.60;;;15.70;99.90;;;;;;5023591;28;20449;-90
2021/10/17 12:56:36;;;;;;;14.50;12.20;;;;;;;;;;5029240;28;20439;-93
2021/10/17 12:59:11;;;;;;;15.43;13.53;;;15.60;99.90;;;;;;5026320;28;20535;-88
2021/10/17 13:02:01;;;;;;;16.53;13.40;;;15.50;99.90;;;;;;5028117;28;20440;-88
2021/10/17 13:04:49;;;;;;;14.17;12.30;;;15.70;99.90;;;;;;5026300;28;20479;-87
2021/10/17 13:07:29;;;;;;;16.27;13.20;;;15.10;99.90;;;;;;5037347;23;20579;-89
2021/10/17 13:10:01;;;;;;;16.97;13.60;;;14.00;99.90;;;;;;5009822;28;20471;-87
2021/10/17 13:12:31;;;;;;;16.13;13.70;;;13.40;99.90;;;;;;5009674;28;20519;-89
2021/10/17 13:15:00;;;;;;;17.90;15.03;;;13.20;99.90;;;;;;5007541;28;20444;-88
2021/10/17 13:17:28;;;;;;;16.67;13.23;;;;;;;;;;5011454;28;20449;-88
2021/10/17 13:19:58;;;;;;;19.00;14.63;;;;;;;;;;5037312;23;20488;-87
2021/10/17 13:22:27;;;;;;;19.40;14.70;;;;;;;;;;5038468;23;20544;-89
2021/10/17 13:24:54;;;;;;;18.67;15.13;;;12.90;99.90;;;;;;5072148;23;20544;-89
2021/10/17 13:27:21;;;;;;;18.63;14.20;;;;;;;;;;5072084;28;20460;-87
2021/10/17 13:29:50;;;;;;;17.50;14.33;;;;;;;;;;5068365;28;20435;-87
2021/10/17 13:32:17;;;;;;;19.30;14.60;;;;;;;;;;5078337;23;20470;-87
2021/10/17 13:34:45;;;;;;;16.63;12.73;;;;;;;;;;5085397;23;20502;-88
2021/10/17 13:37:15;;;;;;;19.00;14.60;;;12.50;99.90;;;;;;5048710;28;20439;-87
2021/10/17 13:39:42;;;;;;;19.20;14.03;;;;;;;;;;5066294;23;20557;-87
2021/10/17 13:42:10;;;;;;;19.23;14.50;;;;;;;;;;5061103;23;20502;-88
2021/10/17 13:44:37;;;;;;;23.13;14.83;;;;;;;;;;5048192;28;20454;-88
2021/10/17 13:47:04;;;;;;;18.53;13.13;;;;;;;;;;5044439;28;20451;-88